sensor_id;sensor_type;location;lat;lon;timestamp;temperature;humidity
5980;DHT22;3016;50.308;8.258;2023-04-25T00:01:18;7.70;30.00
5980;DHT22;3016;50.308;8.258;2023-04-25T00:04:19;7.70;29.80
5980;DHT22;3016;50.308;8.258;2023-04-25T00:07:21;7.60;27.50
5980;DHT22;3016;50.308;8.258;2023-04-25T00:10:22;7.60;27.60
5980;DHT22;3016;50.308;8.258;2023-04-25T00:13:23;7.60;25.70
5980;DHT22;3016;50.308;8.258;2023-04-25T00:16:25;7.60;26.10
5980;DHT22;3016;50.308;8.258;2023-04-25T00:19:27;7.50;23.30
5980;DHT22;3016;50.308;8.258;2023-04-25T00:22:28;7.50;21.90
5980;DHT22;3016;50.308;8.258;2023-04-25T00:25:29;7.50;24.50
5980;DHT22;3016;50.308;8.258;2023-04-25T00:28:30;7.50;25.10
5980;DHT22;3016;50.308;8.258;2023-04-25T00:31:30;7.50;24.80
5980;DHT22;3016;50.308;8.258;2023-04-25T00:34:31;7.40;19.20
5980;DHT22;3016;50.308;8.258;2023-04-25T00:37:31;7.50;22.40
5980;DHT22;3016;50.308;8.258;2023-04-25T00:40:32;7.50;24.40
5980;DHT22;3016;50.308;8.258;2023-04-25T00:43:33;7.40;25.30
5980;DHT22;3016;50.308;8.258;2023-04-25T00:46:35;7.40;25.00
5980;DHT22;3016;50.308;8.258;2023-04-25T00:49:36;7.40;24.70
5980;DHT22;3016;50.308;8.258;2023-04-25T00:52:43;7.40;25.50
5980;DHT22;3016;50.308;8.258;2023-04-25T00:55:44;7.40;27.40
5980;DHT22;3016;50.308;8.258;2023-04-25T00:58:45;7.40;28.70
5980;DHT22;3016;50.308;8.258;2023-04-25T01:01:46;7.30;28.90
5980;DHT22;3016;50.308;8.258;2023-04-25T01:04:48;7.30;28.90
5980;DHT22;3016;50.308;8.258;2023-04-25T01:07:49;7.30;28.30
5980;DHT22;3016;50.308;8.258;2023-04-25T01:10:49;7.20;27.10
5980;DHT22;3016;50.308;8.258;2023-04-25T01:13:50;7.20;23.80
5980;DHT22;3016;50.308;8.258;2023-04-25T01:16:51;7.10;23.40
5980;DHT22;3016;50.308;8.258;2023-04-25T01:19:53;7.10;20.80
5980;DHT22;3016;50.308;8.258;2023-04-25T01:22:55;7.00;21.50
5980;DHT22;3016;50.308;8.258;2023-04-25T01:25:56;7.00;23.70
5980;DHT22;3016;50.308;8.258;2023-04-25T01:28:57;7.00;24.40
5980;DHT22;3016;50.308;8.258;2023-04-25T01:31:59;6.90;24.50
5980;DHT22;3016;50.308;8.258;2023-04-25T01:35:00;6.90;26.30
5980;DHT22;3016;50.308;8.258;2023-04-25T01:38:01;6.80;27.70
5980;DHT22;3016;50.308;8.258;2023-04-25T01:41:01;6.80;28.60
5980;DHT22;3016;50.308;8.258;2023-04-25T01:44:03;6.80;29.20
5980;DHT22;3016;50.308;8.258;2023-04-25T01:47:03;6.80;30.60
5980;DHT22;3016;50.308;8.258;2023-04-25T01:50:05;6.80;33.10
5980;DHT22;3016;50.308;8.258;2023-04-25T01:53:09;6.80;34.00
5980;DHT22;3016;50.308;8.258;2023-04-25T01:56:11;6.70;36.40
5980;DHT22;3016;50.308;8.258;2023-04-25T01:59:12;6.70;38.40
5980;DHT22;3016;50.308;8.258;2023-04-25T02:02:12;6.70;38.60
5980;DHT22;3016;50.308;8.258;2023-04-25T02:05:13;6.70;38.50
5980;DHT22;3016;50.308;8.258;2023-04-25T02:08:15;6.60;38.00
5980;DHT22;3016;50.308;8.258;2023-04-25T02:11:17;6.60;37.80
5980;DHT22;3016;50.308;8.258;2023-04-25T02:14:17;6.60;38.30
5980;DHT22;3016;50.308;8.258;2023-04-25T02:17:18;6.60;37.10
5980;DHT22;3016;50.308;8.258;2023-04-25T02:20:21;6.50;36.30
5980;DHT22;3016;50.308;8.258;2023-04-25T02:23:22;6.50;35.30
5980;DHT22;3016;50.308;8.258;2023-04-25T02:26:23;6.50;34.10
5980;DHT22;3016;50.308;8.258;2023-04-25T02:29:27;6.50;32.50
5980;DHT22;3016;50.308;8.258;2023-04-25T02:32:27;6.40;31.40
5980;DHT22;3016;50.308;8.258;2023-04-25T02:35:28;6.40;31.50
5980;DHT22;3016;50.308;8.258;2023-04-25T02:38:29;6.30;31.80
5980;DHT22;3016;50.308;8.258;2023-04-25T02:41:29;6.20;30.60
5980;DHT22;3016;50.308;8.258;2023-04-25T02:44:30;6.10;28.90
5980;DHT22;3016;50.308;8.258;2023-04-25T02:47:31;6.00;29.40
5980;DHT22;3016;50.308;8.258;2023-04-25T02:50:31;6.00;31.10
5980;DHT22;3016;50.308;8.258;2023-04-25T02:53:32;5.90;29.90
5980;DHT22;3016;50.308;8.258;2023-04-25T02:56:33;5.80;29.90
5980;DHT22;3016;50.308;8.258;2023-04-25T02:59:34;5.70;29.80
5980;DHT22;3016;50.308;8.258;2023-04-25T03:02:35;5.70;29.90
5980;DHT22;3016;50.308;8.258;2023-04-25T03:05:36;5.60;29.10
5980;DHT22;3016;50.308;8.258;2023-04-25T03:08:36;5.60;28.80
5980;DHT22;3016;50.308;8.258;2023-04-25T03:11:38;5.50;28.10
5980;DHT22;3016;50.308;8.258;2023-04-25T03:14:39;5.40;27.60
5980;DHT22;3016;50.308;8.258;2023-04-25T03:17:40;5.30;27.40
5980;DHT22;3016;50.308;8.258;2023-04-25T03:20:41;5.20;28.60
5980;DHT22;3016;50.308;8.258;2023-04-25T03:23:42;5.20;29.50
5980;DHT22;3016;50.308;8.258;2023-04-25T03:26:42;5.10;29.50
5980;DHT22;3016;50.308;8.258;2023-04-25T03:29:43;5.00;29.40
5980;DHT22;3016;50.308;8.258;2023-04-25T03:32:44;5.00;29.40
5980;DHT22;3016;50.308;8.258;2023-04-25T03:35:44;4.90;28.40
5980;DHT22;3016;50.308;8.258;2023-04-25T03:38:45;4.90;28.50
5980;DHT22;3016;50.308;8.258;2023-04-25T03:41:46;4.80;28.40
5980;DHT22;3016;50.308;8.258;2023-04-25T03:44:47;4.80;29.90
5980;DHT22;3016;50.308;8.258;2023-04-25T03:47:48;4.80;31.40
5980;DHT22;3016;50.308;8.258;2023-04-25T03:50:48;4.80;30.90
5980;DHT22;3016;50.308;8.258;2023-04-25T03:53:49;4.70;30.20
5980;DHT22;3016;50.308;8.258;2023-04-25T03:56:50;4.60;30.00
5980;DHT22;3016;50.308;8.258;2023-04-25T03:59:50;4.60;30.70
5980;DHT22;3016;50.308;8.258;2023-04-25T04:02:51;4.50;32.70
5980;DHT22;3016;50.308;8.258;2023-04-25T04:05:52;4.50;33.50
5980;DHT22;3016;50.308;8.258;2023-04-25T04:08:53;4.40;33.30
5980;DHT22;3016;50.308;8.258;2023-04-25T04:11:54;4.40;32.10
5980;DHT22;3016;50.308;8.258;2023-04-25T04:14:54;4.20;30.00
5980;DHT22;3016;50.308;8.258;2023-04-25T04:17:55;4.10;30.00
5980;DHT22;3016;50.308;8.258;2023-04-25T04:20:56;4.10;32.10
5980;DHT22;3016;50.308;8.258;2023-04-25T04:23:58;4.10;33.60
5980;DHT22;3016;50.308;8.258;2023-04-25T04:27:00;4.00;34.10
5980;DHT22;3016;50.308;8.258;2023-04-25T04:30:00;3.90;32.80
5980;DHT22;3016;50.308;8.258;2023-04-25T04:33:02;3.80;31.60
5980;DHT22;3016;50.308;8.258;2023-04-25T04:36:04;3.80;32.60
5980;DHT22;3016;50.308;8.258;2023-04-25T04:39:05;3.80;34.80
5980;DHT22;3016;50.308;8.258;2023-04-25T04:42:06;3.80;37.60
5980;DHT22;3016;50.308;8.258;2023-04-25T04:45:07;3.80;38.80
5980;DHT22;3016;50.308;8.258;2023-04-25T04:48:09;3.80;38.20
5980;DHT22;3016;50.308;8.258;2023-04-25T04:51:12;3.80;38.50
5980;DHT22;3016;50.308;8.258;2023-04-25T04:54:13;3.80;38.20
5980;DHT22;3016;50.308;8.258;2023-04-25T04:57:13;3.70;37.60
5980;DHT22;3016;50.308;8.258;2023-04-25T05:00:14;3.80;38.90
5980;DHT22;3016;50.308;8.258;2023-04-25T05:03:16;3.80;40.70
5980;DHT22;3016;50.308;8.258;2023-04-25T05:06:18;3.90;43.60
5980;DHT22;3016;50.308;8.258;2023-04-25T05:09:19;4.00;45.30
5980;DHT22;3016;50.308;8.258;2023-04-25T05:12:20;4.00;45.60
5980;DHT22;3016;50.308;8.258;2023-04-25T05:15:20;4.10;45.70
5980;DHT22;3016;50.308;8.258;2023-04-25T05:18:21;4.10;45.90
5980;DHT22;3016;50.308;8.258;2023-04-25T05:21:22;4.20;47.00
5980;DHT22;3016;50.308;8.258;2023-04-25T05:24:22;4.40;49.80
5980;DHT22;3016;50.308;8.258;2023-04-25T05:27:23;4.50;49.50
5980;DHT22;3016;50.308;8.258;2023-04-25T05:30:24;4.60;46.50
5980;DHT22;3016;50.308;8.258;2023-04-25T05:33:25;4.80;46.20
5980;DHT22;3016;50.308;8.258;2023-04-25T05:36:25;4.90;41.00
5980;DHT22;3016;50.308;8.258;2023-04-25T05:39:26;5.10;39.40
5980;DHT22;3016;50.308;8.258;2023-04-25T05:42:27;5.30;36.80
5980;DHT22;3016;50.308;8.258;2023-04-25T05:45:28;5.60;33.90
5980;DHT22;3016;50.308;8.258;2023-04-25T05:48:28;5.80;29.20
5980;DHT22;3016;50.308;8.258;2023-04-25T05:51:30;5.70;10.00
5980;DHT22;3016;50.308;8.258;2023-04-25T05:54:31;5.80;2.40
5980;DHT22;3016;50.308;8.258;2023-04-25T05:57:32;5.90;2.70
5980;DHT22;3016;50.308;8.258;2023-04-25T06:00:33;6.00;1.40
5980;DHT22;3016;50.308;8.258;2023-04-25T06:03:34;6.20;1.00
5980;DHT22;3016;50.308;8.258;2023-04-25T06:06:35;6.40;1.00
5980;DHT22;3016;50.308;8.258;2023-04-25T06:09:36;6.60;1.00
5980;DHT22;3016;50.308;8.258;2023-04-25T06:12:36;6.70;1.00
5980;DHT22;3016;50.308;8.258;2023-04-25T06:15:38;6.70;1.00
5980;DHT22;3016;50.308;8.258;2023-04-25T06:18:39;6.80;1.00
5980;DHT22;3016;50.308;8.258;2023-04-25T06:21:41;6.70;1.00
5980;DHT22;3016;50.308;8.258;2023-04-25T06:24:43;6.70;1.00
5980;DHT22;3016;50.308;8.258;2023-04-25T06:27:44;6.70;1.00
5980;DHT22;3016;50.308;8.258;2023-04-25T06:30:44;6.70;1.00
5980;DHT22;3016;50.308;8.258;2023-04-25T06:33:45;6.60;1.00
5980;DHT22;3016;50.308;8.258;2023-04-25T06:36:46;6.70;1.00
5980;DHT22;3016;50.308;8.258;2023-04-25T06:39:47;6.80;1.00
5980;DHT22;3016;50.308;8.258;2023-04-25T06:42:47;6.80;1.00
5980;DHT22;3016;50.308;8.258;2023-04-25T06:45:48;6.90;1.00
5980;DHT22;3016;50.308;8.258;2023-04-25T06:48:49;7.10;1.00
5980;DHT22;3016;50.308;8.258;2023-04-25T06:51:50;7.30;1.00
5980;DHT22;3016;50.308;8.258;2023-04-25T06:54:51;7.50;1.00
5980;DHT22;3016;50.308;8.258;2023-04-25T06:57:51;7.70;1.00
5980;DHT22;3016;50.308;8.258;2023-04-25T07:00:52;7.90;1.00
5980;DHT22;3016;50.308;8.258;2023-04-25T07:03:53;7.80;1.00
5980;DHT22;3016;50.308;8.258;2023-04-25T07:06:53;7.50;1.00
5980;DHT22;3016;50.308;8.258;2023-04-25T07:09:55;7.40;1.00
5980;DHT22;3016;50.308;8.258;2023-04-25T07:12:55;7.30;1.00
5980;DHT22;3016;50.308;8.258;2023-04-25T07:15:56;7.30;1.00
5980;DHT22;3016;50.308;8.258;2023-04-25T07:18:57;7.30;1.00
5980;DHT22;3016;50.308;8.258;2023-04-25T07:21:58;7.40;1.00
5980;DHT22;3016;50.308;8.258;2023-04-25T07:24:58;7.40;1.00
5980;DHT22;3016;50.308;8.258;2023-04-25T07:27:59;7.30;1.00
5980;DHT22;3016;50.308;8.258;2023-04-25T07:31:00;7.30;1.00
5980;DHT22;3016;50.308;8.258;2023-04-25T07:34:00;7.40;1.00
5980;DHT22;3016;50.308;8.258;2023-04-25T07:37:01;7.40;1.00
5980;DHT22;3016;50.308;8.258;2023-04-25T07:40:03;7.50;1.00
5980;DHT22;3016;50.308;8.258;2023-04-25T07:43:04;7.50;1.00
5980;DHT22;3016;50.308;8.258;2023-04-25T07:46:05;7.60;1.00
5980;DHT22;3016;50.308;8.258;2023-04-25T07:49:05;7.70;1.00
5980;DHT22;3016;50.308;8.258;2023-04-25T07:52:06;7.60;1.00
5980;DHT22;3016;50.308;8.258;2023-04-25T07:55:07;7.50;1.00
5980;DHT22;3016;50.308;8.258;2023-04-25T07:58:09;7.60;1.00
5980;DHT22;3016;50.308;8.258;2023-04-25T08:01:12;7.60;1.00
5980;DHT22;3016;50.308;8.258;2023-04-25T08:04:12;7.60;1.00
5980;DHT22;3016;50.308;8.258;2023-04-25T08:07:13;7.80;1.00
5980;DHT22;3016;50.308;8.258;2023-04-25T08:10:14;7.80;1.00
5980;DHT22;3016;50.308;8.258;2023-04-25T08:13:15;8.00;1.00
5980;DHT22;3016;50.308;8.258;2023-04-25T08:16:15;8.00;1.00
5980;DHT22;3016;50.308;8.258;2023-04-25T08:19:16;8.20;1.00
5980;DHT22;3016;50.308;8.258;2023-04-25T08:22:17;8.30;1.00
5980;DHT22;3016;50.308;8.258;2023-04-25T08:25:17;8.20;1.00
5980;DHT22;3016;50.308;8.258;2023-04-25T08:28:18;8.10;1.00
5980;DHT22;3016;50.308;8.258;2023-04-25T08:31:19;8.20;1.00
5980;DHT22;3016;50.308;8.258;2023-04-25T08:34:19;8.50;1.00
5980;DHT22;3016;50.308;8.258;2023-04-25T08:37:21;8.90;1.00
5980;DHT22;3016;50.308;8.258;2023-04-25T08:40:22;9.20;1.00
5980;DHT22;3016;50.308;8.258;2023-04-25T08:43:29;9.40;1.00
5980;DHT22;3016;50.308;8.258;2023-04-25T08:46:31;9.30;1.00
5980;DHT22;3016;50.308;8.258;2023-04-25T08:49:33;9.30;1.00
5980;DHT22;3016;50.308;8.258;2023-04-25T08:52:37;9.20;1.00
5980;DHT22;3016;50.308;8.258;2023-04-25T08:55:43;9.10;1.00
5980;DHT22;3016;50.308;8.258;2023-04-25T08:58:44;8.90;1.00
5980;DHT22;3016;50.308;8.258;2023-04-25T09:01:46;9.30;1.00
5980;DHT22;3016;50.308;8.258;2023-04-25T09:04:47;9.80;1.00
5980;DHT22;3016;50.308;8.258;2023-04-25T09:07:47;9.90;1.00
5980;DHT22;3016;50.308;8.258;2023-04-25T09:10:48;10.00;1.00
5980;DHT22;3016;50.308;8.258;2023-04-25T09:13:49;10.40;1.00
5980;DHT22;3016;50.308;8.258;2023-04-25T09:20:08;10.80;1.00
5980;DHT22;3016;50.308;8.258;2023-04-25T09:23:10;10.80;1.00
5980;DHT22;3016;50.308;8.258;2023-04-25T09:26:16;10.80;1.00
5980;DHT22;3016;50.308;8.258;2023-04-25T09:29:18;10.90;1.00
5980;DHT22;3016;50.308;8.258;2023-04-25T09:32:24;10.90;1.00
5980;DHT22;3016;50.308;8.258;2023-04-25T09:35:25;11.00;1.00
5980;DHT22;3016;50.308;8.258;2023-04-25T09:38:34;11.30;1.00
5980;DHT22;3016;50.308;8.258;2023-04-25T09:41:41;11.30;1.00
5980;DHT22;3016;50.308;8.258;2023-04-25T09:44:43;10.90;1.00
5980;DHT22;3016;50.308;8.258;2023-04-25T09:47:46;10.50;1.00
5980;DHT22;3016;50.308;8.258;2023-04-25T09:51:07;10.30;1.00
5980;DHT22;3016;50.308;8.258;2023-04-25T09:54:09;10.20;1.00
5980;DHT22;3016;50.308;8.258;2023-04-25T09:57:11;10.10;1.00
5980;DHT22;3016;50.308;8.258;2023-04-25T10:00:13;10.20;1.00
5980;DHT22;3016;50.308;8.258;2023-04-25T10:03:14;10.30;1.00
5980;DHT22;3016;50.308;8.258;2023-04-25T10:06:19;10.70;1.00
5980;DHT22;3016;50.308;8.258;2023-04-25T10:09:21;10.70;1.00
5980;DHT22;3016;50.308;8.258;2023-04-25T10:12:26;10.50;1.00
5980;DHT22;3016;50.308;8.258;2023-04-25T10:15:27;10.00;1.00
5980;DHT22;3016;50.308;8.258;2023-04-25T10:18:29;9.80;1.00
5980;DHT22;3016;50.308;8.258;2023-04-25T10:21:31;9.70;1.00
5980;DHT22;3016;50.308;8.258;2023-04-25T10:24:35;9.50;1.00
5980;DHT22;3016;50.308;8.258;2023-04-25T10:27:36;9.50;1.00
5980;DHT22;3016;50.308;8.258;2023-04-25T10:30:37;9.40;1.00
5980;DHT22;3016;50.308;8.258;2023-04-25T10:33:50;9.40;1.00
5980;DHT22;3016;50.308;8.258;2023-04-25T10:36:52;9.50;1.00
5980;DHT22;3016;50.308;8.258;2023-04-25T10:39:53;9.50;1.00
5980;DHT22;3016;50.308;8.258;2023-04-25T10:42:54;9.50;1.00
5980;DHT22;3016;50.308;8.258;2023-04-25T10:45:56;9.60;1.00
5980;DHT22;3016;50.308;8.258;2023-04-25T10:48:59;9.50;1.00
5980;DHT22;3016;50.308;8.258;2023-04-25T10:52:26;9.70;1.00
5980;DHT22;3016;50.308;8.258;2023-04-25T10:55:51;9.90;1.00
5980;DHT22;3016;50.308;8.258;2023-04-25T10:58:52;10.10;1.00
5980;DHT22;3016;50.308;8.258;2023-04-25T11:02:11;10.30;1.00
5980;DHT22;3016;50.308;8.258;2023-04-25T11:05:34;10.30;1.00
5980;DHT22;3016;50.308;8.258;2023-04-25T11:08:55;10.60;1.00
5980;DHT22;3016;50.308;8.258;2023-04-25T11:11:57;10.90;1.00
5980;DHT22;3016;50.308;8.258;2023-04-25T11:15:03;10.80;1.00
5980;DHT22;3016;50.308;8.258;2023-04-25T11:18:07;11.00;1.00
5980;DHT22;3016;50.308;8.258;2023-04-25T11:21:09;11.10;1.00
5980;DHT22;3016;50.308;8.258;2023-04-25T11:24:10;11.40;1.00
5980;DHT22;3016;50.308;8.258;2023-04-25T11:27:12;11.40;1.00
5980;DHT22;3016;50.308;8.258;2023-04-25T11:30:13;11.30;1.00
5980;DHT22;3016;50.308;8.258;2023-04-25T11:33:22;11.00;1.00
5980;DHT22;3016;50.308;8.258;2023-04-25T11:36:24;10.70;1.00
5980;DHT22;3016;50.308;8.258;2023-04-25T11:39:26;10.50;1.00
5980;DHT22;3016;50.308;8.258;2023-04-25T11:42:27;10.40;1.00
5980;DHT22;3016;50.308;8.258;2023-04-25T11:45:28;10.20;1.00
5980;DHT22;3016;50.308;8.258;2023-04-25T11:48:37;10.20;1.00
5980;DHT22;3016;50.308;8.258;2023-04-25T11:51:42;10.00;1.00
5980;DHT22;3016;50.308;8.258;2023-04-25T11:54:44;9.80;1.00
5980;DHT22;3016;50.308;8.258;2023-04-25T11:57:47;9.60;1.00
5980;DHT22;3016;50.308;8.258;2023-04-25T12:00:52;9.60;1.00
5980;DHT22;3016;50.308;8.258;2023-04-25T12:03:53;9.60;1.00
5980;DHT22;3016;50.308;8.258;2023-04-25T12:06:54;9.80;1.00
5980;DHT22;3016;50.308;8.258;2023-04-25T12:09:55;10.00;1.00
5980;DHT22;3016;50.308;8.258;2023-04-25T12:12:56;10.10;1.00
5980;DHT22;3016;50.308;8.258;2023-04-25T12:15:57;10.40;1.00
5980;DHT22;3016;50.308;8.258;2023-04-25T12:18:57;10.50;1.00
5980;DHT22;3016;50.308;8.258;2023-04-25T12:22:01;10.90;1.00
5980;DHT22;3016;50.308;8.258;2023-04-25T12:25:06;11.50;1.00
5980;DHT22;3016;50.308;8.258;2023-04-25T12:28:19;12.00;1.00
5980;DHT22;3016;50.308;8.258;2023-04-25T12:31:24;12.10;1.00
5980;DHT22;3016;50.308;8.258;2023-04-25T12:34:25;11.80;1.00
5980;DHT22;3016;50.308;8.258;2023-04-25T12:37:26;11.60;1.00
5980;DHT22;3016;50.308;8.258;2023-04-25T12:40:27;11.30;1.00
5980;DHT22;3016;50.308;8.258;2023-04-25T12:43:27;11.10;1.00
5980;DHT22;3016;50.308;8.258;2023-04-25T12:46:28;10.80;1.00
5980;DHT22;3016;50.308;8.258;2023-04-25T12:49:29;10.80;1.00
5980;DHT22;3016;50.308;8.258;2023-04-25T12:52:29;10.80;1.00
5980;DHT22;3016;50.308;8.258;2023-04-25T12:55:30;10.70;1.00
5980;DHT22;3016;50.308;8.258;2023-04-25T12:58:31;10.60;1.00
5980;DHT22;3016;50.308;8.258;2023-04-25T13:01:33;10.60;1.00
5980;DHT22;3016;50.308;8.258;2023-04-25T13:04:34;10.70;1.00
5980;DHT22;3016;50.308;8.258;2023-04-25T13:07:34;10.70;1.00
5980;DHT22;3016;50.308;8.258;2023-04-25T13:10:35;10.90;1.00
5980;DHT22;3016;50.308;8.258;2023-04-25T13:13:38;11.00;1.00
5980;DHT22;3016;50.308;8.258;2023-04-25T13:16:40;11.00;1.00
5980;DHT22;3016;50.308;8.258;2023-04-25T13:19:41;11.00;1.00
5980;DHT22;3016;50.308;8.258;2023-04-25T13:22:42;11.00;1.00
5980;DHT22;3016;50.308;8.258;2023-04-25T13:25:43;11.50;1.00
5980;DHT22;3016;50.308;8.258;2023-04-25T13:28:44;12.40;1.00
5980;DHT22;3016;50.308;8.258;2023-04-25T13:31:45;13.00;1.00
5980;DHT22;3016;50.308;8.258;2023-04-25T13:34:45;13.40;1.00
5980;DHT22;3016;50.308;8.258;2023-04-25T13:37:46;13.40;1.00
5980;DHT22;3016;50.308;8.258;2023-04-25T13:40:47;12.50;1.00
5980;DHT22;3016;50.308;8.258;2023-04-25T13:43:49;12.00;1.00
5980;DHT22;3016;50.308;8.258;2023-04-25T13:46:49;11.50;1.00
5980;DHT22;3016;50.308;8.258;2023-04-25T13:49:50;11.00;1.00
5980;DHT22;3016;50.308;8.258;2023-04-25T13:52:51;10.70;1.00
5980;DHT22;3016;50.308;8.258;2023-04-25T13:55:52;10.50;1.00
5980;DHT22;3016;50.308;8.258;2023-04-25T13:58:52;10.30;1.00
5980;DHT22;3016;50.308;8.258;2023-04-25T14:01:53;10.00;1.00
5980;DHT22;3016;50.308;8.258;2023-04-25T14:04:54;9.90;1.00
5980;DHT22;3016;50.308;8.258;2023-04-25T14:07:54;9.70;1.00
5980;DHT22;3016;50.308;8.258;2023-04-25T14:10:55;9.70;1.00
5980;DHT22;3016;50.308;8.258;2023-04-25T14:13:56;9.70;1.00
5980;DHT22;3016;50.308;8.258;2023-04-25T14:16:56;9.60;1.00
5980;DHT22;3016;50.308;8.258;2023-04-25T14:19:57;9.50;1.00
5980;DHT22;3016;50.308;8.258;2023-04-25T14:22:58;9.50;1.00
5980;DHT22;3016;50.308;8.258;2023-04-25T14:25:59;9.70;1.00
5980;DHT22;3016;50.308;8.258;2023-04-25T14:28:59;9.70;1.00
5980;DHT22;3016;50.308;8.258;2023-04-25T14:32:00;9.80;1.00
5980;DHT22;3016;50.308;8.258;2023-04-25T14:35:01;9.70;1.00
5980;DHT22;3016;50.308;8.258;2023-04-25T14:38:01;9.70;1.00
5980;DHT22;3016;50.308;8.258;2023-04-25T14:41:02;9.70;1.00
5980;DHT22;3016;50.308;8.258;2023-04-25T14:44:03;9.90;1.00
5980;DHT22;3016;50.308;8.258;2023-04-25T14:47:04;10.20;1.00
5980;DHT22;3016;50.308;8.258;2023-04-25T14:50:06;10.50;1.00
5980;DHT22;3016;50.308;8.258;2023-04-25T14:53:07;10.80;1.00
5980;DHT22;3016;50.308;8.258;2023-04-25T14:56:08;11.10;1.00
5980;DHT22;3016;50.308;8.258;2023-04-25T14:59:09;11.20;1.00
5980;DHT22;3016;50.308;8.258;2023-04-25T15:02:10;11.10;1.00
5980;DHT22;3016;50.308;8.258;2023-04-25T15:05:11;11.20;1.00
5980;DHT22;3016;50.308;8.258;2023-04-25T15:08:12;11.30;1.00
5980;DHT22;3016;50.308;8.258;2023-04-25T15:11:12;11.10;1.00
5980;DHT22;3016;50.308;8.258;2023-04-25T15:14:13;11.10;1.00
5980;DHT22;3016;50.308;8.258;2023-04-25T15:17:14;11.10;1.00
5980;DHT22;3016;50.308;8.258;2023-04-25T15:20:15;11.10;1.00
5980;DHT22;3016;50.308;8.258;2023-04-25T15:23:17;11.00;1.00
5980;DHT22;3016;50.308;8.258;2023-04-25T15:26:18;10.90;1.00
5980;DHT22;3016;50.308;8.258;2023-04-25T15:29:19;10.80;1.00
5980;DHT22;3016;50.308;8.258;2023-04-25T15:32:20;10.80;1.00
5980;DHT22;3016;50.308;8.258;2023-04-25T15:35:21;10.90;1.00
5980;DHT22;3016;50.308;8.258;2023-04-25T15:38:21;11.10;1.00
5980;DHT22;3016;50.308;8.258;2023-04-25T15:41:23;11.10;1.00
5980;DHT22;3016;50.308;8.258;2023-04-25T15:44:24;11.10;1.00
5980;DHT22;3016;50.308;8.258;2023-04-25T15:47:25;11.00;1.00
5980;DHT22;3016;50.308;8.258;2023-04-25T15:50:26;11.00;1.00
5980;DHT22;3016;50.308;8.258;2023-04-25T15:53:27;11.00;1.00
5980;DHT22;3016;50.308;8.258;2023-04-25T15:56:27;10.80;1.00
5980;DHT22;3016;50.308;8.258;2023-04-25T15:59:28;10.60;1.00
5980;DHT22;3016;50.308;8.258;2023-04-25T16:02:29;10.60;1.00
5980;DHT22;3016;50.308;8.258;2023-04-25T16:05:30;10.50;1.00
5980;DHT22;3016;50.308;8.258;2023-04-25T16:08:31;10.50;1.00
5980;DHT22;3016;50.308;8.258;2023-04-25T16:11:36;10.40;1.00
5980;DHT22;3016;50.308;8.258;2023-04-25T16:14:36;10.30;1.00
5980;DHT22;3016;50.308;8.258;2023-04-25T16:17:37;10.10;1.00
5980;DHT22;3016;50.308;8.258;2023-04-25T16:20:38;10.50;1.00
5980;DHT22;3016;50.308;8.258;2023-04-25T16:23:39;10.80;1.00
5980;DHT22;3016;50.308;8.258;2023-04-25T16:26:39;10.90;1.00
5980;DHT22;3016;50.308;8.258;2023-04-25T16:29:40;11.40;1.00
5980;DHT22;3016;50.308;8.258;2023-04-25T16:32:41;12.00;1.00
5980;DHT22;3016;50.308;8.258;2023-04-25T16:35:42;12.50;1.00
5980;DHT22;3016;50.308;8.258;2023-04-25T16:38:43;12.50;1.00
5980;DHT22;3016;50.308;8.258;2023-04-25T16:41:43;12.20;1.00
5980;DHT22;3016;50.308;8.258;2023-04-25T16:44:44;11.80;1.00
5980;DHT22;3016;50.308;8.258;2023-04-25T16:47:45;11.30;1.00
5980;DHT22;3016;50.308;8.258;2023-04-25T16:50:46;10.80;1.00
5980;DHT22;3016;50.308;8.258;2023-04-25T16:53:47;10.60;1.00
5980;DHT22;3016;50.308;8.258;2023-04-25T16:56:48;10.50;1.00
5980;DHT22;3016;50.308;8.258;2023-04-25T16:59:48;10.40;1.00
5980;DHT22;3016;50.308;8.258;2023-04-25T17:02:49;10.30;1.00
5980;DHT22;3016;50.308;8.258;2023-04-25T17:05:54;10.50;1.00
5980;DHT22;3016;50.308;8.258;2023-04-25T17:09:00;10.60;1.00
5980;DHT22;3016;50.308;8.258;2023-04-25T17:12:01;10.50;1.00
5980;DHT22;3016;50.308;8.258;2023-04-25T17:15:03;10.50;1.00
5980;DHT22;3016;50.308;8.258;2023-04-25T17:18:04;10.30;1.00
5980;DHT22;3016;50.308;8.258;2023-04-25T17:21:05;10.20;1.00
5980;DHT22;3016;50.308;8.258;2023-04-25T17:24:07;10.40;1.00
5980;DHT22;3016;50.308;8.258;2023-04-25T17:27:11;10.70;1.00
5980;DHT22;3016;50.308;8.258;2023-04-25T17:30:12;10.70;1.00
5980;DHT22;3016;50.308;8.258;2023-04-25T17:33:13;10.60;1.00
5980;DHT22;3016;50.308;8.258;2023-04-25T17:36:14;10.50;1.00
5980;DHT22;3016;50.308;8.258;2023-04-25T17:39:14;10.30;1.00
5980;DHT22;3016;50.308;8.258;2023-04-25T17:42:16;10.10;1.00
5980;DHT22;3016;50.308;8.258;2023-04-25T17:45:17;10.00;1.00
5980;DHT22;3016;50.308;8.258;2023-04-25T17:48:18;9.80;1.00
5980;DHT22;3016;50.308;8.258;2023-04-25T17:51:19;9.60;1.00
5980;DHT22;3016;50.308;8.258;2023-04-25T17:54:19;9.40;1.00
5980;DHT22;3016;50.308;8.258;2023-04-25T17:57:23;9.20;1.00
5980;DHT22;3016;50.308;8.258;2023-04-25T18:00:24;9.10;1.00
5980;DHT22;3016;50.308;8.258;2023-04-25T18:03:25;8.90;1.00
5980;DHT22;3016;50.308;8.258;2023-04-25T18:06:26;8.80;1.00
5980;DHT22;3016;50.308;8.258;2023-04-25T18:09:27;8.70;1.00
5980;DHT22;3016;50.308;8.258;2023-04-25T18:12:35;8.70;1.00
5980;DHT22;3016;50.308;8.258;2023-04-25T18:15:39;8.70;1.00
5980;DHT22;3016;50.308;8.258;2023-04-25T18:18:40;8.70;1.00
5980;DHT22;3016;50.308;8.258;2023-04-25T18:21:44;8.60;1.00
5980;DHT22;3016;50.308;8.258;2023-04-25T18:24:45;8.50;1.00
5980;DHT22;3016;50.308;8.258;2023-04-25T18:27:46;8.60;1.00
5980;DHT22;3016;50.308;8.258;2023-04-25T18:30:49;8.50;1.00
5980;DHT22;3016;50.308;8.258;2023-04-25T18:33:50;8.40;1.00
5980;DHT22;3016;50.308;8.258;2023-04-25T18:36:51;8.40;1.00
5980;DHT22;3016;50.308;8.258;2023-04-25T18:39:52;8.20;1.00
5980;DHT22;3016;50.308;8.258;2023-04-25T18:42:53;8.10;1.00
5980;DHT22;3016;50.308;8.258;2023-04-25T18:45:53;8.10;1.00
5980;DHT22;3016;50.308;8.258;2023-04-25T18:48:54;7.90;1.00
5980;DHT22;3016;50.308;8.258;2023-04-25T18:51:56;7.80;1.00
5980;DHT22;3016;50.308;8.258;2023-04-25T18:54:57;7.70;1.00
5980;DHT22;3016;50.308;8.258;2023-04-25T18:57:57;7.50;1.00
5980;DHT22;3016;50.308;8.258;2023-04-25T19:00:59;7.40;1.00
5980;DHT22;3016;50.308;8.258;2023-04-25T19:04:00;7.20;1.00
5980;DHT22;3016;50.308;8.258;2023-04-25T19:07:02;7.10;1.00
5980;DHT22;3016;50.308;8.258;2023-04-25T19:10:04;6.90;1.00
5980;DHT22;3016;50.308;8.258;2023-04-25T19:13:05;6.70;1.00
5980;DHT22;3016;50.308;8.258;2023-04-25T19:16:06;6.60;1.00
5980;DHT22;3016;50.308;8.258;2023-04-25T19:19:08;6.40;1.00
5980;DHT22;3016;50.308;8.258;2023-04-25T19:22:09;6.30;1.00
5980;DHT22;3016;50.308;8.258;2023-04-25T19:25:11;6.10;1.00
5980;DHT22;3016;50.308;8.258;2023-04-25T19:28:12;6.00;1.00
5980;DHT22;3016;50.308;8.258;2023-04-25T19:31:15;5.90;1.00
5980;DHT22;3016;50.308;8.258;2023-04-25T19:34:16;5.80;1.00
5980;DHT22;3016;50.308;8.258;2023-04-25T19:37:16;5.60;1.00
5980;DHT22;3016;50.308;8.258;2023-04-25T19:40:17;5.50;1.00
5980;DHT22;3016;50.308;8.258;2023-04-25T19:43:20;5.40;1.00
5980;DHT22;3016;50.308;8.258;2023-04-25T19:46:21;5.30;1.00
5980;DHT22;3016;50.308;8.258;2023-04-25T19:49:22;5.20;1.00
5980;DHT22;3016;50.308;8.258;2023-04-25T19:52:24;5.10;1.00
5980;DHT22;3016;50.308;8.258;2023-04-25T19:55:25;5.00;1.00
5980;DHT22;3016;50.308;8.258;2023-04-25T19:58:27;5.00;1.00
5980;DHT22;3016;50.308;8.258;2023-04-25T20:01:29;4.90;1.00
5980;DHT22;3016;50.308;8.258;2023-04-25T20:04:30;4.80;1.00
5980;DHT22;3016;50.308;8.258;2023-04-25T20:07:30;4.80;1.00
5980;DHT22;3016;50.308;8.258;2023-04-25T20:10:31;4.70;1.00
5980;DHT22;3016;50.308;8.258;2023-04-25T20:13:32;4.60;1.00
5980;DHT22;3016;50.308;8.258;2023-04-25T20:16:33;4.50;1.00